createdAt,value
2018-10-04T00:01:13.207Z,3.70
2018-10-04T00:03:41.620Z,3.80
2018-10-04T00:06:10.036Z,3.90
2018-10-04T00:08:38.472Z,4.00
2018-10-04T00:11:07.237Z,4.00
2018-10-04T00:13:36.655Z,4.00
2018-10-04T00:16:05.287Z,4.00
2018-10-04T00:18:33.687Z,4.00
2018-10-04T00:21:02.103Z,4.00
2018-10-04T00:23:30.524Z,4.00
2018-10-04T00:25:58.983Z,4.00
2018-10-04T00:28:27.378Z,4.10
2018-10-04T00:30:55.804Z,4.10
2018-10-04T00:33:24.275Z,4.10
2018-10-04T00:35:52.752Z,3.90
2018-10-04T00:38:21.167Z,3.80
2018-10-04T00:40:49.607Z,3.60
2018-10-04T00:43:18.072Z,3.60
2018-10-04T00:45:46.683Z,3.60
2018-10-04T00:48:15.084Z,3.60
2018-10-04T00:50:43.511Z,3.70
2018-10-04T00:53:11.964Z,3.70
2018-10-04T00:55:40.371Z,3.80
2018-10-04T00:58:08.794Z,3.70
2018-10-04T01:00:37.210Z,3.80
2018-10-04T01:03:05.723Z,3.80
2018-10-04T01:05:34.247Z,3.80
2018-10-04T01:08:02.600Z,3.70
2018-10-04T01:10:30.988Z,3.60
2018-10-04T01:12:59.445Z,3.50
2018-10-04T01:15:27.892Z,3.50
2018-10-04T01:18:07.914Z,3.50
2018-10-04T01:20:36.312Z,3.40
2018-10-04T01:23:04.727Z,3.30
2018-10-04T01:25:33.123Z,3.30
2018-10-04T01:28:01.545Z,3.20
2018-10-04T01:30:30.227Z,3.20
2018-10-04T01:32:58.627Z,3.20
2018-10-04T01:35:27.051Z,3.30
2018-10-04T01:37:55.484Z,3.30
2018-10-04T01:40:23.920Z,3.40
2018-10-04T01:42:52.396Z,3.40
2018-10-04T01:45:20.807Z,3.50
2018-10-04T01:47:49.381Z,3.40
2018-10-04T01:50:17.880Z,3.30
2018-10-04T01:52:46.331Z,3.30
2018-10-04T01:55:14.760Z,3.10
2018-10-04T01:57:43.175Z,3.00
2018-10-04T02:00:11.575Z,3.00
2018-10-04T02:02:39.987Z,3.00
2018-10-04T02:05:08.482Z,3.00
2018-10-04T02:07:36.899Z,3.00
2018-10-04T02:10:05.444Z,3.10
2018-10-04T02:12:33.840Z,3.10
2018-10-04T02:15:02.276Z,3.00
2018-10-04T02:17:30.667Z,3.00
2018-10-04T02:19:59.131Z,2.90
2018-10-04T02:22:27.549Z,2.80
2018-10-04T02:24:55.988Z,2.80
2018-10-04T02:27:24.387Z,2.80
2018-10-04T02:29:52.832Z,2.80
2018-10-04T02:32:21.223Z,2.80
2018-10-04T02:34:49.659Z,2.80
2018-10-04T02:37:18.043Z,2.80
2018-10-04T02:39:46.468Z,2.70
2018-10-04T02:42:14.854Z,2.60
2018-10-04T02:44:43.287Z,2.60
2018-10-04T02:47:11.692Z,2.60
2018-10-04T02:49:40.115Z,2.60
2018-10-04T02:52:08.867Z,2.70
2018-10-04T02:54:37.330Z,2.70
2018-10-04T02:57:05.843Z,2.70
2018-10-04T02:59:34.298Z,2.60
2018-10-04T03:02:02.725Z,2.60
2018-10-04T03:04:31.152Z,2.60
2018-10-04T03:06:59.593Z,2.60
2018-10-04T03:09:28.005Z,2.70
2018-10-04T03:11:56.404Z,2.70
2018-10-04T03:14:24.840Z,2.60
2018-10-04T03:16:53.220Z,2.60
2018-10-04T03:19:21.641Z,2.70
2018-10-04T03:21:50.035Z,2.80
2018-10-04T03:24:18.415Z,2.90
2018-10-04T03:26:46.856Z,2.90
2018-10-04T03:29:15.243Z,2.80
2018-10-04T03:31:43.654Z,2.80
2018-10-04T03:34:12.027Z,2.70
2018-10-04T03:36:40.444Z,2.70
2018-10-04T03:39:09.107Z,2.70
2018-10-04T03:41:37.512Z,2.70
2018-10-04T03:44:05.979Z,2.70
2018-10-04T03:46:34.351Z,2.70
2018-10-04T03:49:02.740Z,2.80
2018-10-04T03:51:31.155Z,2.80
2018-10-04T03:53:59.527Z,2.90
2018-10-04T03:56:27.950Z,2.90
2018-10-04T03:58:56.345Z,2.80
2018-10-04T04:01:24.755Z,2.80
2018-10-04T04:03:53.467Z,2.70
2018-10-04T04:06:21.851Z,2.50
2018-10-04T04:08:50.277Z,2.40
2018-10-04T04:11:18.664Z,2.40
2018-10-04T04:13:47.044Z,2.40
2018-10-04T04:16:15.451Z,2.40
2018-10-04T04:18:43.830Z,2.40
2018-10-04T04:21:12.295Z,2.50
2018-10-04T04:23:51.571Z,2.50
2018-10-04T04:26:20.418Z,2.60
2018-10-04T04:28:49.809Z,2.60
2018-10-04T04:31:18.752Z,2.60
2018-10-04T04:33:47.591Z,2.70
2018-10-04T04:36:16.383Z,2.70
2018-10-04T04:38:45.296Z,2.70
2018-10-04T04:41:13.701Z,2.70
2018-10-04T04:43:42.264Z,2.70
2018-10-04T04:46:10.644Z,2.60
2018-10-04T04:48:39.036Z,2.50
2018-10-04T04:51:07.423Z,2.40
2018-10-04T04:53:39.549Z,2.30
2018-10-04T04:56:08.327Z,2.20
2018-10-04T04:58:36.728Z,2.20
2018-10-04T05:01:05.154Z,2.10
2018-10-04T05:03:33.560Z,2.10
2018-10-04T05:06:02.017Z,2.10
2018-10-04T05:08:30.389Z,2.10
2018-10-04T05:10:58.787Z,2.10
2018-10-04T05:13:27.183Z,2.10
2018-10-04T05:15:55.647Z,2.20
2018-10-04T05:18:23.997Z,2.20
2018-10-04T05:20:52.411Z,2.30
2018-10-04T05:23:20.807Z,2.30
2018-10-04T05:25:49.219Z,2.40
2018-10-04T05:28:17.598Z,2.40
2018-10-04T05:30:46.000Z,2.50
2018-10-04T05:33:14.424Z,2.50
2018-10-04T05:35:42.836Z,2.50
2018-10-04T05:38:11.223Z,2.40
2018-10-04T05:40:39.632Z,2.30
2018-10-04T05:43:08.055Z,2.30
2018-10-04T05:45:36.458Z,2.30
2018-10-04T05:48:04.832Z,2.50
2018-10-04T05:50:33.244Z,2.80
2018-10-04T05:53:01.681Z,3.30
2018-10-04T05:55:30.076Z,3.90
2018-10-04T05:57:58.440Z,4.40
2018-10-04T06:00:31.965Z,5.10
2018-10-04T06:03:00.403Z,5.80
2018-10-04T06:05:28.888Z,6.70
2018-10-04T06:07:57.231Z,7.60
2018-10-04T06:10:25.762Z,8.60
2018-10-04T06:12:54.164Z,9.40
2018-10-04T06:15:22.702Z,10.20
2018-10-04T06:17:51.051Z,11.00
2018-10-04T06:20:19.472Z,11.60
2018-10-04T06:22:47.868Z,11.80
2018-10-04T06:25:16.294Z,12.10
2018-10-04T06:27:44.695Z,12.50
2018-10-04T06:30:13.151Z,12.70
2018-10-04T06:32:41.596Z,13.20
2018-10-04T06:35:09.999Z,13.90
2018-10-04T06:37:38.682Z,14.30
2018-10-04T06:40:07.153Z,14.00
2018-10-04T06:42:35.571Z,14.10
2018-10-04T06:45:04.050Z,14.80
2018-10-04T06:47:32.454Z,15.50
2018-10-04T06:50:00.843Z,16.00
2018-10-04T06:52:29.264Z,16.40
2018-10-04T06:54:57.640Z,16.90
2018-10-04T06:57:26.023Z,17.20
2018-10-04T06:59:54.400Z,17.50
2018-10-04T07:02:22.800Z,17.30
2018-10-04T07:04:51.212Z,17.00
2018-10-04T07:07:19.952Z,16.80
2018-10-04T07:09:48.359Z,16.80
2018-10-04T07:12:16.789Z,17.10
2018-10-04T07:14:45.180Z,17.20
2018-10-04T07:17:13.603Z,17.30
2018-10-04T07:19:42.007Z,17.30
2018-10-04T07:22:10.395Z,17.50
2018-10-04T07:24:38.812Z,17.40
2018-10-04T07:27:07.219Z,17.60
2018-10-04T07:29:35.645Z,17.90
2018-10-04T07:32:04.043Z,18.20
2018-10-04T07:34:32.467Z,18.40
2018-10-04T07:37:00.902Z,18.70
2018-10-04T07:39:29.320Z,19.20
2018-10-04T07:41:57.748Z,19.60
2018-10-04T07:44:26.160Z,19.60
2018-10-04T07:46:54.555Z,19.40
2018-10-04T07:49:22.965Z,19.70
2018-10-04T07:51:51.350Z,20.00
2018-10-04T07:54:19.768Z,20.30
2018-10-04T07:56:48.164Z,20.30
2018-10-04T07:59:16.597Z,20.20
2018-10-04T08:01:45.074Z,20.60
2018-10-04T08:04:13.446Z,20.90
2018-10-04T08:06:42.183Z,20.90
2018-10-04T08:09:10.779Z,20.60
2018-10-04T08:11:39.184Z,20.60
2018-10-04T08:14:07.660Z,20.70
2018-10-04T08:16:36.340Z,20.90
2018-10-04T08:19:04.755Z,21.00
2018-10-04T08:21:33.167Z,21.10
2018-10-04T08:24:01.570Z,21.00
2018-10-04T08:26:30.013Z,20.90
2018-10-04T08:28:58.408Z,20.90
2018-10-04T08:31:26.811Z,21.10
2018-10-04T08:33:55.199Z,21.10
2018-10-04T08:36:23.612Z,21.40
2018-10-04T08:38:52.031Z,21.60
2018-10-04T08:41:20.480Z,22.20
2018-10-04T08:43:48.901Z,22.40
2018-10-04T08:46:17.363Z,22.40
2018-10-04T08:48:45.754Z,22.50
2018-10-04T08:51:14.176Z,22.60
2018-10-04T08:53:42.576Z,23.00
2018-10-04T08:56:11.012Z,23.40
2018-10-04T08:58:41.622Z,23.60
2018-10-04T09:01:10.055Z,23.90
2018-10-04T09:03:38.456Z,23.70
2018-10-04T09:06:07.036Z,23.80
2018-10-04T09:08:35.439Z,23.60
2018-10-04T09:11:03.900Z,23.40
2018-10-04T09:13:32.307Z,23.20
2018-10-04T09:16:00.747Z,23.40
2018-10-04T09:18:29.152Z,23.60
2018-10-04T09:20:57.583Z,23.40
2018-10-04T09:23:28.895Z,23.40
2018-10-04T09:25:57.403Z,23.60
2018-10-04T09:28:25.807Z,24.00
2018-10-04T09:30:59.512Z,24.30
2018-10-04T09:33:27.908Z,24.50
2018-10-04T09:35:56.320Z,24.70
2018-10-04T09:38:24.737Z,24.90
2018-10-04T09:40:53.155Z,24.90
2018-10-04T09:43:21.589Z,25.00
2018-10-04T09:45:50.011Z,24.90
2018-10-04T09:48:18.461Z,24.90
2018-10-04T09:50:46.865Z,24.90
2018-10-04T09:53:15.331Z,24.50
2018-10-04T09:55:49.188Z,24.50
2018-10-04T09:58:17.627Z,24.20
2018-10-04T10:00:51.523Z,24.00
2018-10-04T10:03:19.939Z,24.10
2018-10-04T10:05:48.380Z,23.80
2018-10-04T10:08:16.843Z,23.80
2018-10-04T10:10:45.307Z,24.00
2018-10-04T10:13:13.727Z,23.70
2018-10-04T10:15:42.132Z,23.50
2018-10-04T10:18:10.547Z,23.60
2018-10-04T10:20:38.931Z,23.10
2018-10-04T10:23:07.380Z,22.80
2018-10-04T10:25:35.781Z,22.80
2018-10-04T10:28:04.221Z,23.10
2018-10-04T10:30:32.596Z,23.20
2018-10-04T10:33:00.993Z,23.40
2018-10-04T10:35:29.396Z,23.50
2018-10-04T10:37:57.793Z,23.50
2018-10-04T10:40:26.398Z,23.30
2018-10-04T10:42:54.589Z,23.30
2018-10-04T10:45:22.995Z,23.50
2018-10-04T10:47:51.390Z,23.60
2018-10-04T10:50:19.811Z,23.50
2018-10-04T10:52:48.195Z,23.40
2018-10-04T10:55:16.588Z,23.60
2018-10-04T10:57:44.976Z,23.30
2018-10-04T11:00:13.385Z,23.10
2018-10-04T11:02:41.767Z,23.20
2018-10-04T11:05:10.188Z,23.30
2018-10-04T11:07:38.572Z,23.20
2018-10-04T11:10:07.077Z,23.00
2018-10-04T11:12:35.417Z,22.90
2018-10-04T11:15:03.880Z,22.70
2018-10-04T11:17:32.271Z,22.40
2018-10-04T11:20:00.676Z,22.00
2018-10-04T11:22:29.075Z,21.90
2018-10-04T11:24:57.451Z,22.20
2018-10-04T11:27:25.868Z,22.70
2018-10-04T11:29:54.313Z,23.20
2018-10-04T11:32:22.751Z,23.70
2018-10-04T11:34:51.131Z,24.00
2018-10-04T11:37:19.528Z,23.90
2018-10-04T11:39:47.903Z,23.50
2018-10-04T11:42:16.351Z,23.30
2018-10-04T11:44:48.092Z,22.70
2018-10-04T11:47:22.044Z,22.60
2018-10-04T11:49:50.472Z,22.70
2018-10-04T11:52:18.971Z,22.70
2018-10-04T11:54:47.431Z,22.60
2018-10-04T11:57:15.862Z,22.60
2018-10-04T11:59:44.273Z,22.30
2018-10-04T12:02:16.098Z,22.20
2018-10-04T12:04:44.568Z,22.20
2018-10-04T12:07:13.053Z,22.50
2018-10-04T12:09:41.512Z,23.00
2018-10-04T12:12:09.979Z,23.40
2018-10-04T12:14:38.445Z,23.70
2018-10-04T12:17:06.892Z,24.00
2018-10-04T12:19:35.308Z,23.90
2018-10-04T12:22:03.736Z,23.60
2018-10-04T12:24:32.139Z,23.60
2018-10-04T12:27:00.592Z,23.60
2018-10-04T12:29:29.020Z,23.50
2018-10-04T12:31:57.412Z,23.30
2018-10-04T12:34:25.836Z,23.30
2018-10-04T12:36:54.234Z,23.20
2018-10-04T12:39:22.651Z,23.10
2018-10-04T12:41:51.050Z,22.50
2018-10-04T12:44:19.472Z,21.70
2018-10-04T12:46:47.884Z,21.30
2018-10-04T12:49:16.304Z,21.10
2018-10-04T12:51:44.702Z,21.30
2018-10-04T12:54:13.185Z,21.60
2018-10-04T12:56:41.560Z,21.90
2018-10-04T12:59:09.996Z,22.10
2018-10-04T13:01:38.395Z,22.20
2018-10-04T13:04:06.956Z,22.10
2018-10-04T13:06:35.452Z,22.00
2018-10-04T13:09:05.108Z,22.00
2018-10-04T13:11:33.527Z,21.90
2018-10-04T13:14:02.064Z,21.50
2018-10-04T13:16:30.471Z,21.00
2018-10-04T13:18:58.908Z,20.80
2018-10-04T13:21:27.404Z,20.50
2018-10-04T13:23:55.811Z,20.40
2018-10-04T13:26:24.229Z,20.20
2018-10-04T13:28:52.640Z,20.00
2018-10-04T13:31:21.090Z,20.10
2018-10-04T13:33:49.471Z,20.00
2018-10-04T13:36:18.009Z,19.90
2018-10-04T13:38:46.414Z,19.80
2018-10-04T13:41:14.858Z,19.80
2018-10-04T13:43:43.250Z,20.00
2018-10-04T13:46:11.750Z,20.20
2018-10-04T13:48:40.114Z,20.10
2018-10-04T13:51:08.576Z,20.00
2018-10-04T13:53:36.971Z,19.80
2018-10-04T13:56:05.420Z,20.00
2018-10-04T13:58:33.821Z,20.20
2018-10-04T14:01:02.255Z,20.60
2018-10-04T14:03:30.669Z,21.00
2018-10-04T14:05:59.162Z,21.20
2018-10-04T14:08:27.539Z,21.20
2018-10-04T14:10:55.968Z,21.30
2018-10-04T14:13:24.992Z,21.30
2018-10-04T14:15:53.417Z,21.10
2018-10-04T14:18:21.827Z,20.80
2018-10-04T14:20:50.223Z,20.60
2018-10-04T14:23:18.640Z,20.60
2018-10-04T14:25:47.059Z,20.50
2018-10-04T14:28:15.475Z,20.40
2018-10-04T14:30:43.872Z,20.20
2018-10-04T14:33:12.280Z,19.90
2018-10-04T14:35:40.675Z,19.70
2018-10-04T14:38:09.084Z,19.60
2018-10-04T14:40:37.484Z,19.60
2018-10-04T14:43:05.960Z,19.60
2018-10-04T14:45:34.374Z,19.70
2018-10-04T14:48:02.867Z,19.80
2018-10-04T14:50:31.271Z,19.90
2018-10-04T14:52:59.716Z,20.00
2018-10-04T14:55:28.128Z,19.80
2018-10-04T14:57:56.569Z,19.70
2018-10-04T15:00:24.967Z,19.60
2018-10-04T15:02:53.387Z,19.50
2018-10-04T15:05:21.807Z,19.20
2018-10-04T15:07:50.222Z,19.20
2018-10-04T15:10:18.620Z,19.20
2018-10-04T15:12:47.046Z,19.00
2018-10-04T15:15:15.448Z,19.00
2018-10-04T15:17:43.856Z,18.80
2018-10-04T15:20:12.251Z,18.70
2018-10-04T15:22:40.656Z,18.70
2018-10-04T15:25:09.073Z,18.60
2018-10-04T15:27:37.504Z,18.60
2018-10-04T15:30:06.047Z,18.60
2018-10-04T15:32:34.440Z,18.60
2018-10-04T15:35:02.866Z,18.80
2018-10-04T15:37:31.279Z,18.70
2018-10-04T15:39:59.695Z,18.50
2018-10-04T15:42:28.084Z,18.40
2018-10-04T15:44:56.500Z,18.30
2018-10-04T15:47:24.917Z,18.20
2018-10-04T15:49:53.340Z,18.10
2018-10-04T15:52:21.737Z,17.90
2018-10-04T15:54:50.245Z,17.70
2018-10-04T15:57:18.787Z,17.80
2018-10-04T15:59:47.199Z,17.80
2018-10-04T16:02:15.599Z,17.80
2018-10-04T16:04:44.020Z,17.70
2018-10-04T16:07:12.449Z,17.60
2018-10-04T16:09:40.864Z,17.50
2018-10-04T16:12:09.276Z,17.30
2018-10-04T16:14:37.719Z,17.10
2018-10-04T16:17:06.194Z,16.90
2018-10-04T16:19:34.616Z,16.60
2018-10-04T16:22:03.310Z,16.40
2018-10-04T16:24:31.728Z,16.20
2018-10-04T16:27:00.712Z,16.00
2018-10-04T16:29:29.115Z,15.80
2018-10-04T16:31:57.576Z,15.70
2018-10-04T16:34:25.967Z,15.50
2018-10-04T16:36:54.390Z,15.30
2018-10-04T16:39:22.816Z,15.00
2018-10-04T16:41:51.239Z,14.80
2018-10-04T16:44:19.659Z,14.70
2018-10-04T16:46:48.084Z,14.50
2018-10-04T16:49:16.490Z,14.40
2018-10-04T16:51:44.919Z,14.30
2018-10-04T16:54:13.423Z,14.20
2018-10-04T16:56:41.886Z,14.00
2018-10-04T16:59:10.280Z,13.80
2018-10-04T17:01:38.695Z,13.60
2018-10-04T17:04:07.091Z,13.40
2018-10-04T17:06:35.528Z,13.30
2018-10-04T17:09:05.219Z,13.20
2018-10-04T17:11:33.620Z,13.00
2018-10-04T17:14:02.015Z,12.90
2018-10-04T17:16:30.416Z,12.80
2018-10-04T17:18:58.832Z,12.60
2018-10-04T17:21:27.252Z,12.60
2018-10-04T17:23:55.672Z,12.50
2018-10-04T17:26:24.084Z,12.40
2018-10-04T17:28:52.484Z,12.40
2018-10-04T17:31:20.874Z,12.30
2018-10-04T17:33:49.271Z,12.30
2018-10-04T17:36:17.664Z,12.20
2018-10-04T17:38:46.079Z,12.10
2018-10-04T17:41:14.468Z,12.00
2018-10-04T17:43:42.955Z,11.80
2018-10-04T17:46:11.357Z,11.60
2018-10-04T17:48:39.764Z,11.50
2018-10-04T17:51:08.159Z,11.40
2018-10-04T17:53:36.624Z,11.30
2018-10-04T17:56:05.042Z,11.20
2018-10-04T17:58:33.486Z,11.10
2018-10-04T18:01:01.865Z,11.10
2018-10-04T18:03:30.272Z,11.00
2018-10-04T18:05:58.673Z,11.00
2018-10-04T18:08:27.115Z,10.90
2018-10-04T18:10:55.558Z,10.90
2018-10-04T18:13:23.936Z,10.80
2018-10-04T18:15:52.323Z,10.70
2018-10-04T18:18:20.732Z,10.70
2018-10-04T18:20:49.128Z,10.60
2018-10-04T18:23:17.538Z,10.50
2018-10-04T18:25:45.943Z,10.40
2018-10-04T18:28:14.336Z,10.30
2018-10-04T18:30:42.752Z,10.30
2018-10-04T18:33:11.151Z,10.20
2018-10-04T18:35:39.572Z,10.20
2018-10-04T18:38:10.984Z,10.10
2018-10-04T18:40:39.387Z,10.00
2018-10-04T18:43:07.775Z,9.90
2018-10-04T18:45:36.207Z,9.80
2018-10-04T18:48:04.668Z,9.80
2018-10-04T18:50:33.076Z,9.70
2018-10-04T18:53:01.461Z,9.70
2018-10-04T18:55:29.883Z,9.60
2018-10-04T18:57:58.258Z,9.60
2018-10-04T19:00:26.652Z,9.60
2018-10-04T19:02:55.037Z,9.60
2018-10-04T19:05:23.476Z,9.50
2018-10-04T19:07:51.904Z,9.50
2018-10-04T19:10:20.312Z,9.40
2018-10-04T19:12:48.815Z,9.40
2018-10-04T19:15:17.178Z,9.40
2018-10-04T19:17:45.604Z,9.40
2018-10-04T19:20:14.027Z,9.10
2018-10-04T19:22:42.425Z,8.90
2018-10-04T19:25:10.822Z,8.70
2018-10-04T19:27:39.248Z,8.60
2018-10-04T19:30:07.683Z,8.40
2018-10-04T19:32:36.099Z,8.40
2018-10-04T19:35:05.438Z,8.50
2018-10-04T19:37:33.860Z,8.50
2018-10-04T19:40:02.293Z,8.50
2018-10-04T19:42:30.730Z,8.50
2018-10-04T19:44:59.125Z,8.50
2018-10-04T19:47:27.544Z,8.50
2018-10-04T19:49:55.942Z,8.40
2018-10-04T19:52:24.579Z,8.40
2018-10-04T19:54:52.989Z,8.40
2018-10-04T19:57:21.408Z,8.40
2018-10-04T19:59:49.808Z,8.40
2018-10-04T20:02:18.227Z,8.40
2018-10-04T20:04:46.635Z,8.40
2018-10-04T20:07:15.069Z,8.40
2018-10-04T20:09:43.523Z,8.30
2018-10-04T20:12:12.001Z,8.30
2018-10-04T20:14:40.596Z,8.30
2018-10-04T20:17:09.499Z,8.30
2018-10-04T20:19:37.885Z,8.30
2018-10-04T20:22:09.875Z,8.30
2018-10-04T20:24:38.254Z,8.20
2018-10-04T20:27:06.696Z,8.20
2018-10-04T20:29:35.082Z,8.20
2018-10-04T20:32:03.475Z,8.10
2018-10-04T20:34:31.918Z,8.10
2018-10-04T20:37:00.299Z,8.00
2018-10-04T20:39:28.717Z,8.00
2018-10-04T20:41:57.103Z,7.70
2018-10-04T20:44:25.538Z,7.60
2018-10-04T20:46:53.940Z,7.40
2018-10-04T20:49:22.466Z,7.40
2018-10-04T20:51:50.858Z,7.40
2018-10-04T20:54:19.251Z,7.40
2018-10-04T20:56:47.624Z,7.30
2018-10-04T20:59:16.070Z,7.10
2018-10-04T21:01:44.459Z,7.10
2018-10-04T21:04:12.871Z,7.10
2018-10-04T21:06:41.381Z,7.10
2018-10-04T21:09:11.008Z,7.20
2018-10-04T21:11:40.394Z,7.30
2018-10-04T21:14:09.099Z,7.30
2018-10-04T21:16:37.496Z,7.30
2018-10-04T21:19:05.944Z,7.30
2018-10-04T21:21:34.351Z,7.30
2018-10-04T21:24:02.791Z,7.30
2018-10-04T21:26:31.204Z,7.20
2018-10-04T21:28:59.703Z,7.10
2018-10-04T21:31:28.117Z,6.90
2018-10-04T21:33:56.525Z,6.60
2018-10-04T21:36:24.939Z,6.50
2018-10-04T21:38:53.359Z,6.50
2018-10-04T21:41:21.784Z,6.50
2018-10-04T21:43:50.204Z,6.60
2018-10-04T21:46:18.640Z,6.60
2018-10-04T21:48:47.039Z,6.70
2018-10-04T21:51:15.454Z,6.80
2018-10-04T21:53:43.870Z,6.90
2018-10-04T21:56:12.306Z,6.90
2018-10-04T21:58:40.701Z,6.90
2018-10-04T22:01:09.124Z,7.00
2018-10-04T22:03:37.536Z,6.90
2018-10-04T22:06:05.987Z,6.80
2018-10-04T22:08:34.698Z,6.60
2018-10-04T22:11:03.124Z,6.40
2018-10-04T22:13:31.515Z,6.30
2018-10-04T22:15:59.927Z,6.20
2018-10-04T22:18:28.343Z,6.20
2018-10-04T22:20:56.803Z,6.10
2018-10-04T22:23:25.214Z,6.00
2018-10-04T22:25:53.603Z,6.10
2018-10-04T22:28:22.016Z,6.10
2018-10-04T22:30:50.426Z,6.10
2018-10-04T22:33:19.063Z,6.20
2018-10-04T22:35:47.478Z,6.30
2018-10-04T22:38:15.895Z,6.30
2018-10-04T22:40:44.308Z,6.40
2018-10-04T22:43:12.776Z,6.40
2018-10-04T22:45:41.204Z,6.40
2018-10-04T22:48:09.614Z,6.40
2018-10-04T22:50:38.009Z,6.30
2018-10-04T22:53:06.990Z,6.40
2018-10-04T22:55:35.375Z,6.40
2018-10-04T22:58:04.464Z,6.30
2018-10-04T23:00:33.817Z,6.10
2018-10-04T23:03:02.420Z,5.90
2018-10-04T23:05:31.083Z,5.90
2018-10-04T23:07:59.514Z,5.90
2018-10-04T23:10:27.963Z,6.00
2018-10-04T23:12:56.424Z,5.90
2018-10-04T23:15:25.017Z,5.80
2018-10-04T23:17:53.436Z,5.60
2018-10-04T23:20:21.816Z,5.50
2018-10-04T23:22:50.223Z,5.40
2018-10-04T23:25:18.625Z,5.40
2018-10-04T23:27:47.044Z,5.30
2018-10-04T23:30:15.443Z,5.20
2018-10-04T23:32:43.841Z,5.20
2018-10-04T23:35:12.264Z,5.30
2018-10-04T23:37:40.656Z,5.40
2018-10-04T23:40:09.124Z,5.50
2018-10-04T23:42:37.492Z,5.50
2018-10-04T23:45:05.935Z,5.60
2018-10-04T23:47:34.319Z,5.70
2018-10-04T23:50:02.748Z,5.80
2018-10-04T23:52:31.146Z,5.80
2018-10-04T23:54:59.565Z,5.90
2018-10-04T23:57:27.968Z,5.80
2018-10-04T23:59:56.376Z,5.60
